Time;durP1;ratioP1;P1;durP2;ratioP2;P2;SDS_P1;SDS_P2;PMS_P1;PMS_P2;Temp;Humidity;BMP_temperature;BMP_pressure;BME280_temperature;BME280_humidity;BME280_pressure;Samples;Min_cycle;Max_cycle;Signal;HPM_P1;HPM_P2
2023/04/15 00:00:50;;;;;;;;;;;7.60;99.90;;;;;;5074832;28;20285;-67
2023/04/15 00:03:17;;;;;;;;;;;7.60;99.90;;;;;;5076574;28;19912;-67
2023/04/15 00:05:43;;;;;;;;;;;7.50;99.90;;;;;;5088810;28;20042;-67
2023/04/15 00:08:09;;;;;;;;;;;7.50;99.90;;;;;;5098973;28;19968;-67
2023/04/15 00:10:35;;;;;;;;;;;7.40;99.90;;;;;;5080996;28;20217;-67
2023/04/15 00:13:01;;;;;;;;;;;7.30;99.90;;;;;;5098809;28;19988;-67
2023/04/15 00:15:27;;;;;;;;;;;7.30;99.90;;;;;;5099110;28;19999;-67
2023/04/15 00:17:53;;;;;;;;;;;7.10;99.90;;;;;;5099007;28;19959;-67
2023/04/15 00:20:18;;;;;;;;;;;7.00;99.90;;;;;;5098990;28;19923;-67
2023/04/15 00:22:45;;;;;;;;;;;6.90;99.90;;;;;;5099054;28;19912;-67
2023/04/15 00:25:11;;;;;;;;;;;6.90;99.90;;;;;;5098949;28;19972;-67
2023/04/15 00:27:37;;;;;;;;;;;6.80;99.90;;;;;;5098798;28;20018;-67
2023/04/15 00:30:04;;;;;;;;;;;6.70;99.90;;;;;;5098909;28;19912;-67
2023/04/15 00:32:30;;;;;;;;;;;6.90;99.90;;;;;;5098662;28;19912;-67
2023/04/15 00:34:56;;;;;;;;;;;6.80;99.90;;;;;;5080514;28;19919;-67
2023/04/15 00:37:22;;;;;;;;;;;6.60;99.90;;;;;;5098701;28;20432;-67
2023/04/15 00:39:48;;;;;;;;;;;6.60;99.90;;;;;;5098672;28;19966;-67
2023/04/15 00:42:14;;;;;;;;;;;6.60;99.90;;;;;;5098545;28;19946;-67
2023/04/15 00:44:41;;;;;;;;;;;6.50;99.90;;;;;;5098659;28;19999;-67
2023/04/15 00:47:07;;;;;;;;;;;6.40;99.90;;;;;;5098458;28;20266;-67
2023/04/15 00:49:33;;;;;;;;;;;6.30;99.90;;;;;;5080124;28;20288;-67
2023/04/15 00:52:00;;;;;;;;;;;6.20;99.90;;;;;;5098493;28;19924;-67
2023/04/15 00:54:26;;;;;;;;;;;6.00;99.90;;;;;;5098237;28;19912;-67
2023/04/15 00:56:52;;;;;;;;;;;6.00;99.90;;;;;;5098382;28;19957;-67
2023/04/15 00:59:19;;;;;;;;;;;5.90;99.90;;;;;;5098224;28;19916;-67
2023/04/15 01:01:45;;;;;;;;;;;5.90;99.90;;;;;;5098137;28;19912;-67
2023/04/15 01:04:12;;;;;;;;;;;5.80;99.90;;;;;;5098389;28;19923;-67
2023/04/15 01:06:38;;;;;;;;;;;5.70;99.90;;;;;;5062441;28;19913;-66
2023/04/15 01:09:04;;;;;;;;;;;5.70;99.90;;;;;;5077625;28;19928;-65
2023/04/15 01:11:33;;;;;;;;;;;5.70;99.90;;;;;;5077706;28;19913;-66
2023/04/15 01:14:00;;;;;;;;;;;5.80;99.90;;;;;;5077032;28;19912;-66
2023/04/15 01:16:27;;;;;;;;;;;5.80;99.90;;;;;;5076235;28;20358;-66
2023/04/15 01:18:53;;;;;;;;;;;5.90;99.90;;;;;;5093301;28;19962;-66
2023/04/15 01:21:20;;;;;;;;;;;5.90;99.90;;;;;;5076233;28;19917;-67
2023/04/15 01:23:47;;;;;;;;;;;5.80;99.90;;;;;;5077448;28;20017;-65
2023/04/15 01:26:13;;;;;;;;;;;6.00;99.90;;;;;;5059600;28;20007;-64
2023/04/15 01:28:39;;;;;;;;;;;6.00;99.90;;;;;;5076044;28;19939;-65
2023/04/15 01:31:12;;;;;;;;;;;6.00;99.90;;;;;;5076102;28;19912;-66
2023/04/15 01:33:38;;;;;;;;;;;5.90;99.90;;;;;;5077278;28;20053;-65
2023/04/15 01:36:07;;;;;;;;;;;6.00;99.90;;;;;;5077367;28;19913;-65
2023/04/15 01:38:33;;;;;;;;;;;6.10;99.90;;;;;;5059248;28;19916;-66
2023/04/15 01:40:59;;;;;;;;;;;6.00;99.90;;;;;;5077284;28;20280;-67
2023/04/15 01:43:25;;;;;;;;;;;6.00;99.90;;;;;;5077138;28;19912;-67
2023/04/15 01:45:51;;;;;;;;;;;5.90;99.90;;;;;;5077213;28;19958;-67
2023/04/15 01:48:17;;;;;;;;;;;5.90;99.90;;;;;;5076862;28;19969;-65
2023/04/15 01:50:43;;;;;;;;;;;6.00;99.90;;;;;;5077100;28;19913;-64
2023/04/15 01:53:09;;;;;;;;;;;6.00;99.90;;;;;;5077056;28;19994;-65
2023/04/15 01:55:35;;;;;;;;;;;6.10;99.90;;;;;;5058819;28;19921;-66
2023/04/15 01:58:01;;;;;;;;;;;6.00;99.90;;;;;;5076811;28;20035;-65
2023/04/15 02:00:27;;;;;;;;;;;5.80;99.90;;;;;;5075569;28;19934;-65
2023/04/15 02:02:53;;;;;;;;;;;5.70;99.90;;;;;;5077028;28;19916;-65
2023/04/15 02:05:19;;;;;;;;;;;5.60;99.90;;;;;;5083180;28;19908;-64
2023/04/15 02:07:47;;;;;;;;;;;5.60;99.90;;;;;;5096781;28;20608;-64
2023/04/15 02:10:13;;;;;;;;;;;5.60;99.90;;;;;;5096788;28;19977;-64
2023/04/15 02:12:39;;;;;;;;;;;5.60;99.90;;;;;;5078633;28;20326;-64
2023/04/15 02:15:06;;;;;;;;;;;5.50;99.90;;;;;;5096792;28;19919;-64
2023/04/15 02:17:35;;;;;;;;;;;5.60;99.90;;;;;;5096619;28;19958;-64
2023/04/15 02:20:01;;;;;;;;;;;5.50;99.90;;;;;;5078533;28;19912;-64
2023/04/15 02:22:28;;;;;;;;;;;5.50;99.90;;;;;;5096678;28;19918;-64
2023/04/15 02:24:53;;;;;;;;;;;5.30;99.90;;;;;;5096571;28;19916;-64
2023/04/15 02:27:19;;;;;;;;;;;5.30;99.90;;;;;;5096469;28;19912;-64
2023/04/15 02:29:45;;;;;;;;;;;5.20;99.90;;;;;;5078299;28;19983;-64
2023/04/15 02:32:11;;;;;;;;;;;5.20;99.90;;;;;;5096522;28;19916;-64
2023/04/15 02:34:41;;;;;;;;;;;5.20;99.90;;;;;;5078126;28;19955;-64
2023/04/15 02:37:12;;;;;;;;;;;5.30;99.90;;;;;;5078354;28;19951;-64
2023/04/15 02:39:38;;;;;;;;;;;5.40;99.90;;;;;;5078063;28;19912;-64
2023/04/15 02:42:04;;;;;;;;;;;5.50;99.90;;;;;;5096533;28;19923;-64
2023/04/15 02:44:31;;;;;;;;;;;5.50;99.90;;;;;;5077998;28;19920;-64
2023/04/15 02:47:00;;;;;;;;;;;5.60;99.90;;;;;;5077944;28;20019;-64
2023/04/15 02:49:29;;;;;;;;;;;5.50;99.90;;;;;;5077902;28;19998;-64
2023/04/15 02:51:57;;;;;;;;;;;5.50;99.90;;;;;;5077876;28;19912;-64
2023/04/15 02:54:23;;;;;;;;;;;5.50;99.90;;;;;;5077634;28;19935;-64
2023/04/15 02:56:49;;;;;;;;;;;5.70;99.90;;;;;;5077853;28;20285;-64
2023/04/15 02:59:15;;;;;;;;;;;5.70;99.90;;;;;;5077626;28;19920;-64
2023/04/15 03:01:41;;;;;;;;;;;5.80;99.90;;;;;;5095884;28;19912;-64
2023/04/15 03:04:07;;;;;;;;;;;5.80;99.90;;;;;;5077866;28;19963;-64
2023/04/15 03:06:34;;;;;;;;;;;5.80;99.90;;;;;;5060759;28;19977;-64
2023/04/15 03:09:01;;;;;;;;;;;5.80;99.90;;;;;;5057313;28;19960;-64
2023/04/15 03:11:30;;;;;;;;;;;5.90;99.90;;;;;;5057391;28;19920;-64
2023/04/15 03:13:57;;;;;;;;;;;6.00;99.90;;;;;;5075472;28;19913;-64
2023/04/15 03:16:31;;;;;;;;;;;5.80;99.90;;;;;;5057340;28;19917;-64
2023/04/15 03:18:57;;;;;;;;;;;5.70;99.90;;;;;;5090957;28;19918;-64
2023/04/15 03:21:23;;;;;;;;;;;5.70;99.90;;;;;;5073928;28;19958;-64
2023/04/15 03:23:50;;;;;;;;;;;5.40;99.90;;;;;;5090981;28;20274;-64
2023/04/15 03:26:42;;;;;;;;;;;5.50;99.90;;;;;;5073850;28;20003;-64
2023/04/15 03:29:11;;;;;;;;;;;5.40;99.90;;;;;;5055502;28;19921;-64
2023/04/15 03:31:39;;;;;;;;;;;5.40;99.90;;;;;;5073777;28;20267;-64
2023/04/15 03:34:04;;;;;;;;;;;5.40;99.90;;;;;;5075208;28;19916;-64
2023/04/15 03:36:33;;;;;;;;;;;5.30;99.90;;;;;;5090640;28;19916;-64
2023/04/15 03:39:00;;;;;;;;;;;5.30;99.90;;;;;;5074582;28;19952;-64
2023/04/15 03:41:27;;;;;;;;;;;5.40;99.90;;;;;;5075096;28;20425;-64
2023/04/15 03:43:53;;;;;;;;;;;5.50;99.90;;;;;;5074976;28;19934;-64
2023/04/15 03:46:19;;;;;;;;;;;5.50;99.90;;;;;;5074923;28;19917;-64
2023/04/15 03:48:45;;;;;;;;;;;5.50;99.90;;;;;;5074946;28;20016;-64
2023/04/15 03:51:11;;;;;;;;;;;5.60;99.90;;;;;;5074783;28;19919;-64
2023/04/15 03:53:37;;;;;;;;;;;5.60;99.90;;;;;;5074847;28;19944;-64
2023/04/15 03:56:03;;;;;;;;;;;5.60;99.90;;;;;;5074734;28;19928;-64
2023/04/15 03:58:28;;;;;;;;;;;5.60;99.90;;;;;;5074817;28;19969;-65
2023/04/15 04:00:54;;;;;;;;;;;5.60;99.90;;;;;;5074859;28;19912;-65
2023/04/15 04:03:20;;;;;;;;;;;5.50;99.90;;;;;;5074900;28;19991;-65
2023/04/15 04:05:46;;;;;;;;;;;5.50;99.90;;;;;;5084760;28;20343;-65
2023/04/15 04:08:15;;;;;;;;;;;5.40;99.90;;;;;;5094910;28;20217;-64
2023/04/15 04:10:41;;;;;;;;;;;5.40;99.90;;;;;;5094904;28;19912;-64
2023/04/15 04:13:07;;;;;;;;;;;5.50;99.90;;;;;;5094975;28;19913;-65
2023/04/15 04:15:33;;;;;;;;;;;5.50;99.90;;;;;;5094808;28;19912;-65
2023/04/15 04:17:59;;;;;;;;;;;5.50;99.90;;;;;;5094884;28;19984;-64
2023/04/15 04:20:24;;;;;;;;;;;5.30;99.90;;;;;;5094729;28;19912;-65
2023/04/15 04:22:50;;;;;;;;;;;5.30;99.90;;;;;;5094904;28;19916;-65
2023/04/15 04:25:16;;;;;;;;;;;5.10;99.90;;;;;;5094808;28;19965;-64
2023/04/15 04:27:42;;;;;;;;;;;5.10;99.90;;;;;;5094566;28;19963;-65
2023/04/15 04:30:08;;;;;;;;;;;5.20;99.90;;;;;;5094732;28;20499;-65
2023/04/15 04:32:34;;;;;;;;;;;5.20;99.90;;;;;;5095055;28;19916;-65
2023/04/15 04:35:00;;;;;;;;;;;5.20;99.90;;;;;;5094595;28;19915;-64
2023/04/15 04:37:26;;;;;;;;;;;5.30;99.90;;;;;;5094757;28;19912;-65
2023/04/15 04:39:51;;;;;;;;;;;5.30;99.90;;;;;;5094645;28;19912;-65
2023/04/15 04:42:17;;;;;;;;;;;5.40;99.90;;;;;;5094610;28;19964;-65
2023/04/15 04:44:43;;;;;;;;;;;5.60;99.90;;;;;;5094526;28;19923;-64
2023/04/15 04:47:09;;;;;;;;;;;5.60;99.90;;;;;;5094564;28;19995;-65
2023/04/15 04:49:35;;;;;;;;;;;5.60;99.90;;;;;;5095054;28;19923;-65
2023/04/15 04:52:01;;;;;;;;;;;5.80;99.90;;;;;;5098365;28;19915;-65
2023/04/15 04:54:27;;;;;;;;;;;5.90;99.90;;;;;;5098193;28;19916;-65
2023/04/15 04:56:53;;;;;;;;;;;6.00;99.90;;;;;;5098347;28;19938;-64
2023/04/15 04:59:18;;;;;;;;;;;6.00;99.90;;;;;;5098325;28;19979;-65
2023/04/15 05:01:44;;;;;;;;;;;6.30;99.90;;;;;;5098230;28;19934;-64
2023/04/15 05:04:10;;;;;;;;;;;6.40;99.90;;;;;;5098038;28;19912;-64
2023/04/15 05:06:36;;;;;;;;;;;6.60;99.90;;;;;;5080858;28;19918;-64
2023/04/15 05:09:02;;;;;;;;;;;6.60;99.90;;;;;;5077524;28;19916;-65
2023/04/15 05:11:28;;;;;;;;;;;6.70;99.90;;;;;;5077651;28;20358;-64
2023/04/15 05:13:54;;;;;;;;;;;6.50;99.90;;;;;;5077733;28;19913;-65
2023/04/15 05:16:20;;;;;;;;;;;6.60;99.90;;;;;;5077593;28;20263;-64
2023/04/15 05:18:46;;;;;;;;;;;6.60;99.90;;;;;;5077492;28;19924;-65
2023/04/15 05:21:12;;;;;;;;;;;6.70;99.90;;;;;;5077809;28;20003;-64
2023/04/15 05:23:38;;;;;;;;;;;6.80;99.90;;;;;;5077551;28;20296;-64
2023/04/15 05:26:03;;;;;;;;;;;6.90;99.90;;;;;;5077571;28;19932;-64
2023/04/15 05:28:29;;;;;;;;;;;7.10;99.90;;;;;;5077573;28;20439;-64
2023/04/15 05:30:55;;;;;;;;;;;7.30;99.90;;;;;;5077357;28;19966;-65
2023/04/15 05:33:22;;;;;;;;;;;7.50;99.90;;;;;;5077265;28;19912;-64
2023/04/15 05:35:47;;;;;;;;;;;7.70;99.90;;;;;;5077425;28;19959;-64
2023/04/15 05:38:13;;;;;;;;;;;7.60;99.90;;;;;;5077355;28;19962;-64
2023/04/15 05:40:39;;;;;;;;;;;7.80;99.90;;;;;;5077228;28;19912;-65
2023/04/15 05:43:05;;;;;;;;;;;7.90;99.90;;;;;;5077260;28;19920;-65
2023/04/15 05:45:31;;;;;;;;;;;8.00;99.90;;;;;;5077091;28;19987;-64
2023/04/15 05:47:57;;;;;;;;;;;8.20;99.90;;;;;;5076875;28;20507;-64
2023/04/15 05:50:22;;;;;;;;;;;8.10;99.90;;;;;;5077111;28;19958;-64
2023/04/15 05:52:48;;;;;;;;;;;8.20;99.90;;;;;;5077081;28;19917;-64
2023/04/15 05:55:14;;;;;;;;;;;8.30;99.90;;;;;;5077156;28;19924;-64
2023/04/15 05:57:40;;;;;;;;;;;8.50;99.90;;;;;;5076949;28;19923;-64
2023/04/15 06:00:06;;;;;;;;;;;8.80;99.90;;;;;;5076696;28;19992;-65
2023/04/15 06:02:38;;;;;;;;;;;9.00;99.90;;;;;;5076941;28;20104;-65
2023/04/15 06:05:08;;;;;;;;;;;9.30;99.90;;;;;;5080997;28;19916;-65
2023/04/15 06:07:36;;;;;;;;;;;9.50;99.90;;;;;;5096340;28;20142;-65
2023/04/15 06:10:06;;;;;;;;;;;10.00;99.90;;;;;;5096724;28;19916;-65
2023/04/15 06:12:31;;;;;;;;;;;10.40;99.90;;;;;;5096813;28;19935;-65
2023/04/15 06:14:57;;;;;;;;;;;10.60;99.90;;;;;;5096709;28;19908;-65
2023/04/15 06:17:23;;;;;;;;;;;10.60;98.00;;;;;;5096886;28;19970;-65
2023/04/15 06:19:54;;;;;;;;;;;10.80;98.10;;;;;;5096757;28;19923;-65
2023/04/15 06:22:22;;;;;;;;;;;10.80;96.60;;;;;;5096688;28;19951;-65
2023/04/15 06:24:51;;;;;;;;;;;11.30;97.30;;;;;;5096578;28;19962;-65
2023/04/15 06:27:17;;;;;;;;;;;11.60;95.40;;;;;;5096496;28;20007;-65
2023/04/15 06:29:43;;;;;;;;;;;11.60;94.00;;;;;;5096284;28;20388;-65
2023/04/15 06:32:09;;;;;;;;;;;11.60;92.80;;;;;;5096489;28;20254;-65
2023/04/15 06:34:35;;;;;;;;;;;11.70;93.20;;;;;;5096333;28;19913;-65
2023/04/15 06:37:01;;;;;;;;;;;12.20;94.30;;;;;;5096269;28;20369;-65
2023/04/15 06:39:27;;;;;;;;;;;12.40;91.80;;;;;;5096424;28;19912;-65
2023/04/15 06:41:52;;;;;;;;;;;12.70;89.50;;;;;;5096181;28;19967;-65
2023/04/15 06:44:20;;;;;;;;;;;12.90;87.20;;;;;;5078014;28;19955;-65
2023/04/15 06:46:46;;;;;;;;;;;12.90;88.70;;;;;;5096163;28;19912;-65
2023/04/15 06:49:12;;;;;;;;;;;12.90;87.60;;;;;;5095971;28;19935;-65
2023/04/15 06:51:38;;;;;;;;;;;13.40;86.00;;;;;;5095938;28;19999;-65
2023/04/15 06:54:05;;;;;;;;;;;13.40;83.20;;;;;;5096071;28;19916;-65
2023/04/15 06:56:31;;;;;;;;;;;13.80;83.20;;;;;;5095754;28;19997;-65
2023/04/15 06:58:57;;;;;;;;;;;14.00;80.90;;;;;;5095873;28;20007;-65
2023/04/15 07:01:23;;;;;;;;;;;14.20;77.00;;;;;;5096171;28;19947;-65
2023/04/15 07:03:49;;;;;;;;;;;14.40;77.30;;;;;;5095919;28;19969;-65
2023/04/15 07:06:14;;;;;;;;;;;14.70;74.70;;;;;;5081432;28;20011;-65
2023/04/15 07:08:40;;;;;;;;;;;14.90;77.00;;;;;;5075285;28;19987;-65
2023/04/15 07:11:06;;;;;;;;;;;15.20;73.10;;;;;;5075408;28;19935;-65
2023/04/15 07:13:32;;;;;;;;;;;15.40;71.60;;;;;;5074631;28;20429;-65
2023/04/15 07:15:58;;;;;;;;;;;15.10;66.10;;;;;;5075439;28;20259;-65
2023/04/15 07:18:23;;;;;;;;;;;15.40;68.70;;;;;;5075409;28;19912;-65
2023/04/15 07:20:49;;;;;;;;;;;15.40;65.40;;;;;;5075308;28;20003;-65
2023/04/15 07:23:15;;;;;;;;;;;15.50;65.70;;;;;;5075272;28;19912;-65
2023/04/15 07:25:41;;;;;;;;;;;15.40;66.40;;;;;;5075077;28;19912;-65
2023/04/15 07:28:07;;;;;;;;;;;15.50;66.80;;;;;;5075131;28;19920;-65
2023/04/15 07:30:33;;;;;;;;;;;15.40;68.00;;;;;;5075149;28;19916;-65
2023/04/15 07:32:59;;;;;;;;;;;15.30;72.40;;;;;;5075127;28;19917;-65
2023/04/15 07:35:25;;;;;;;;;;;15.40;72.60;;;;;;5075043;28;19916;-65
2023/04/15 07:37:51;;;;;;;;;;;15.30;68.20;;;;;;5075140;28;19916;-65
2023/04/15 07:40:17;;;;;;;;;;;15.20;70.20;;;;;;5074875;28;19961;-65
2023/04/15 07:42:42;;;;;;;;;;;15.30;71.30;;;;;;5074900;28;19921;-65
2023/04/15 07:45:08;;;;;;;;;;;15.40;70.40;;;;;;5075013;28;20316;-65
2023/04/15 07:47:34;;;;;;;;;;;15.40;70.30;;;;;;5075058;28;19939;-65
2023/04/15 07:50:01;;;;;;;;;;;15.20;68.90;;;;;;5074953;28;19932;-65
2023/04/15 07:52:27;;;;;;;;;;;15.20;68.50;;;;;;5074916;28;19909;-65
2023/04/15 07:54:53;;;;;;;;;;;15.30;70.00;;;;;;5074636;28;20413;-65
2023/04/15 07:57:18;;;;;;;;;;;15.50;69.10;;;;;;5074823;28;20325;-65
2023/04/15 07:59:44;;;;;;;;;;;15.90;67.40;;;;;;5074811;28;19920;-65
2023/04/15 08:02:10;;;;;;;;;;;16.20;67.20;;;;;;5075038;28;19913;-65
2023/04/15 08:04:36;;;;;;;;;;;16.60;67.10;;;;;;5075154;28;19916;-65
2023/04/15 08:07:03;;;;;;;;;;;16.80;64.10;;;;;;5095008;28;19916;-65
2023/04/15 08:09:28;;;;;;;;;;;16.90;60.30;;;;;;5094607;28;19927;-65
2023/04/15 08:11:55;;;;;;;;;;;17.40;61.80;;;;;;5095036;28;19912;-65
2023/04/15 08:14:21;;;;;;;;;;;18.50;63.80;;;;;;5094848;28;19916;-65
2023/04/15 08:16:47;;;;;;;;;;;18.20;62.60;;;;;;5094841;28;19958;-65
2023/04/15 08:19:13;;;;;;;;;;;18.30;67.60;;;;;;5094960;28;19919;-65
2023/04/15 08:21:39;;;;;;;;;;;18.70;62.10;;;;;;5094724;28;19947;-65
2023/04/15 08:24:05;;;;;;;;;;;19.30;65.70;;;;;;5096494;28;19912;-65
2023/04/15 08:26:31;;;;;;;;;;;19.80;63.50;;;;;;5098865;28;20293;-65
2023/04/15 08:28:57;;;;;;;;;;;20.20;62.50;;;;;;5098696;28;19912;-65
2023/04/15 08:31:25;;;;;;;;;;;20.30;57.80;;;;;;5099056;28;19965;-65
2023/04/15 08:33:52;;;;;;;;;;;20.20;57.60;;;;;;5098790;28;19919;-65
2023/04/15 08:36:18;;;;;;;;;;;20.50;57.20;;;;;;5098690;28;19915;-65
2023/04/15 08:38:44;;;;;;;;;;;20.10;58.40;;;;;;5098601;28;19923;-65
2023/04/15 08:41:23;;;;;;;;;;;20.20;57.50;;;;;;5098753;28;19912;-65
2023/04/15 08:43:53;;;;;;;;;;;20.20;56.30;;;;;;5098700;28;20028;-65
2023/04/15 08:46:20;;;;;;;;;;;20.40;54.80;;;;;;5098567;28;19977;-65
2023/04/15 08:48:46;;;;;;;;;;;21.00;55.10;;;;;;5098510;28;20446;-65
2023/04/15 08:51:15;;;;;;;;;;;21.30;53.90;;;;;;5098405;28;20311;-65
2023/04/15 08:53:42;;;;;;;;;;;21.90;56.30;;;;;;5098309;28;19921;-65
2023/04/15 08:56:09;;;;;;;;;;;22.30;51.50;;;;;;5098401;28;19969;-65
2023/04/15 08:58:35;;;;;;;;;;;22.20;49.60;;;;;;5098285;28;20365;-65
2023/04/15 09:01:01;;;;;;;;;;;21.90;51.00;;;;;;5098059;28;19934;-65
2023/04/15 09:03:27;;;;;;;;;;;21.80;50.40;;;;;;5098139;28;19948;-65
2023/04/15 09:05:53;;;;;;;;;;;21.90;52.10;;;;;;5086887;28;20263;-65
2023/04/15 09:08:19;;;;;;;;;;;22.20;50.60;;;;;;5077772;28;20061;-65
2023/04/15 09:10:45;;;;;;;;;;;22.10;49.90;;;;;;5077761;28;19948;-65
2023/04/15 09:13:10;;;;;;;;;;;22.20;49.60;;;;;;5077628;28;19919;-65
2023/04/15 09:15:39;;;;;;;;;;;22.00;50.50;;;;;;5077815;28;19908;-65
2023/04/15 09:18:05;;;;;;;;;;;21.90;48.00;;;;;;5077854;28;19913;-65
2023/04/15 09:20:43;;;;;;;;;;;21.90;48.90;;;;;;5077797;28;19912;-65
2023/04/15 09:23:13;;;;;;;;;;;22.10;46.40;;;;;;5077524;28;19916;-64
2023/04/15 09:25:39;;;;;;;;;;;22.00;47.40;;;;;;5077572;28;19919;-64
2023/04/15 09:28:05;;;;;;;;;;;22.10;47.30;;;;;;5077598;28;20019;-65
2023/04/15 09:30:30;;;;;;;;;;;22.00;46.10;;;;;;5077581;28;19959;-64
2023/04/15 09:33:09;;;;;;;;;;;21.90;49.00;;;;;;5077463;28;20345;-65
2023/04/15 09:35:35;;;;;;;;;;;21.80;47.30;;;;;;5076590;28;20430;-64
2023/04/15 09:38:06;;;;;;;;;;;21.70;49.90;;;;;;5077418;28;20004;-65
2023/04/15 09:40:33;;;;;;;;;;;21.60;48.00;;;;;;5077175;28;19919;-65
2023/04/15 09:42:58;;;;;;;;;;;22.20;52.30;;;;;;5077325;28;19920;-65
2023/04/15 09:45:25;;;;;;;;;;;22.60;49.00;;;;;;5077297;28;20318;-65
2023/04/15 09:47:51;;;;;;;;;;;22.60;45.80;;;;;;5077166;28;19919;-65
2023/04/15 09:50:18;;;;;;;;;;;23.20;46.90;;;;;;5077088;28;19913;-65
2023/04/15 09:52:43;;;;;;;;;;;23.50;45.10;;;;;;5077090;28;19916;-65
2023/04/15 09:55:10;;;;;;;;;;;23.20;40.50;;;;;;5076923;28;20325;-64
2023/04/15 09:57:36;;;;;;;;;;;22.40;44.80;;;;;;5077093;28;19913;-64
2023/04/15 10:00:07;;;;;;;;;;;22.30;46.60;;;;;;5076885;28;19966;-64
2023/04/15 10:02:33;;;;;;;;;;;22.60;49.00;;;;;;5077139;28;19924;-65
2023/04/15 10:04:59;;;;;;;;;;;22.90;45.90;;;;;;5080420;28;20007;-65
2023/04/15 10:07:25;;;;;;;;;;;22.50;42.10;;;;;;5097187;28;19912;-65
2023/04/15 10:09:51;;;;;;;;;;;22.50;47.70;;;;;;5096859;28;20014;-65
2023/04/15 10:12:18;;;;;;;;;;;22.50;41.40;;;;;;5096917;28;20002;-64
2023/04/15 10:14:44;;;;;;;;;;;22.50;39.50;;;;;;5096841;28;19937;-65
2023/04/15 10:17:10;;;;;;;;;;;22.30;41.20;;;;;;5096888;28;20019;-65
2023/04/15 10:19:36;;;;;;;;;;;22.20;39.60;;;;;;5096800;28;19912;-65
2023/04/15 10:22:02;;;;;;;;;;;22.20;43.10;;;;;;5096789;28;19977;-64
2023/04/15 10:24:32;;;;;;;;;;;22.70;42.20;;;;;;5096798;28;19916;-65
2023/04/15 10:26:58;;;;;;;;;;;22.70;40.40;;;;;;5096704;28;19934;-65
2023/04/15 10:29:27;;;;;;;;;;;23.00;38.40;;;;;;5096552;28;19923;-64
2023/04/15 10:31:54;;;;;;;;;;;23.40;38.80;;;;;;5096673;28;19962;-64
2023/04/15 10:34:20;;;;;;;;;;;23.70;37.40;;;;;;5096582;28;19912;-64
2023/04/15 10:36:46;;;;;;;;;;;24.00;37.00;;;;;;5096471;28;19913;-64
2023/04/15 10:39:31;;;;;;;;;;;23.60;38.70;;;;;;5096380;28;19923;-64
2023/04/15 10:42:14;;;;;;;;;;;23.90;36.10;;;;;;5096561;28;19931;-64
2023/04/15 10:44:50;;;;;;;;;;;24.00;42.20;;;;;;5096325;28;19919;-64
2023/04/15 10:47:20;;;;;;;;;;;24.30;39.90;;;;;;5095313;28;19934;-64
2023/04/15 10:49:47;;;;;;;;;;;22.90;36.90;;;;;;5096206;28;19962;-64
2023/04/15 10:52:13;;;;;;;;;;;23.20;36.00;;;;;;5096114;28;19935;-65
2023/04/15 10:54:39;;;;;;;;;;;22.90;35.60;;;;;;5095941;28;19908;-64
2023/04/15 10:57:05;;;;;;;;;;;22.80;34.50;;;;;;5096114;28;19919;-64
2023/04/15 10:59:31;;;;;;;;;;;22.50;34.50;;;;;;5095858;28;20243;-65
2023/04/15 11:02:01;;;;;;;;;;;21.70;34.90;;;;;;5096110;28;19919;-65
2023/04/15 11:04:45;;;;;;;;;;;21.30;36.40;;;;;;5095869;28;19919;-65
2023/04/15 11:07:11;;;;;;;;;;;21.20;35.80;;;;;;5075536;28;19913;-64
2023/04/15 11:09:37;;;;;;;;;;;21.20;36.40;;;;;;5075458;28;20049;-64
2023/04/15 11:12:09;;;;;;;;;;;21.10;37.40;;;;;;5075520;28;19962;-65
2023/04/15 11:14:42;;;;;;;;;;;21.20;37.80;;;;;;5075456;28;19960;-65
2023/04/15 11:17:08;;;;;;;;;;;21.40;38.10;;;;;;5075422;28;19991;-65
2023/04/15 11:19:37;;;;;;;;;;;21.90;38.40;;;;;;5075289;28;20030;-65
2023/04/15 11:22:07;;;;;;;;;;;21.90;39.20;;;;;;5075148;28;20385;-65
2023/04/15 11:24:33;;;;;;;;;;;21.50;38.20;;;;;;5075300;28;19917;-65
2023/04/15 11:27:00;;;;;;;;;;;21.30;38.30;;;;;;5075290;28;19913;-67
2023/04/15 11:29:32;;;;;;;;;;;20.60;40.00;;;;;;5075123;28;20362;-67
2023/04/15 11:32:06;;;;;;;;;;;19.80;40.70;;;;;;5075268;28;19962;-67
2023/04/15 11:34:32;;;;;;;;;;;19.20;42.00;;;;;;5075159;28;19951;-67
2023/04/15 11:36:57;;;;;;;;;;;19.00;44.10;;;;;;5075044;28;19919;-67
2023/04/15 11:39:23;;;;;;;;;;;18.90;45.00;;;;;;5075298;28;19913;-67
2023/04/15 11:41:49;;;;;;;;;;;18.60;44.80;;;;;;5074928;28;19917;-67
2023/04/15 11:44:15;;;;;;;;;;;18.20;46.30;;;;;;5075313;28;19928;-67
2023/04/15 11:46:41;;;;;;;;;;;18.00;47.10;;;;;;5075075;28;19912;-67
2023/04/15 11:49:07;;;;;;;;;;;18.20;47.60;;;;;;5074907;28;19969;-67
2023/04/15 11:51:33;;;;;;;;;;;18.50;47.60;;;;;;5074939;28;19999;-67
2023/04/15 11:53:59;;;;;;;;;;;18.30;45.70;;;;;;5074931;28;19916;-67
2023/04/15 11:56:26;;;;;;;;;;;18.50;46.90;;;;;;5074726;28;19921;-67
2023/04/15 11:59:01;;;;;;;;;;;18.50;44.90;;;;;;5074482;28;19966;-67
2023/04/15 12:01:31;;;;;;;;;;;18.40;44.60;;;;;;5074928;28;19963;-67
2023/04/15 12:03:58;;;;;;;;;;;18.30;46.60;;;;;;5074812;28;19913;-67
2023/04/15 12:06:24;;;;;;;;;;;18.20;47.70;;;;;;5090438;28;20360;-67
2023/04/15 12:09:02;;;;;;;;;;;18.00;48.40;;;;;;5094763;28;19916;-67
2023/04/15 12:11:29;;;;;;;;;;;18.10;49.00;;;;;;5094950;28;19923;-67
2023/04/15 12:14:01;;;;;;;;;;;17.70;52.00;;;;;;5095053;28;19912;-67
2023/04/15 12:16:27;;;;;;;;;;;17.80;53.20;;;;;;5094911;28;20468;-66
2023/04/15 12:18:57;;;;;;;;;;;17.70;51.80;;;;;;5094909;28;20362;-66
2023/04/15 12:21:24;;;;;;;;;;;17.60;52.20;;;;;;5094955;28;19913;-67
2023/04/15 12:23:50;;;;;;;;;;;17.10;54.60;;;;;;5094683;28;19912;-66
2023/04/15 12:26:17;;;;;;;;;;;16.70;56.80;;;;;;5094790;28;19913;-66
2023/04/15 12:28:43;;;;;;;;;;;16.70;58.70;;;;;;5094766;28;20011;-66
2023/04/15 12:31:10;;;;;;;;;;;16.70;60.10;;;;;;5094552;28;20406;-66
2023/04/15 12:33:36;;;;;;;;;;;16.70;59.50;;;;;;5094687;28;20381;-66
2023/04/15 12:36:02;;;;;;;;;;;16.50;60.40;;;;;;5094861;28;19916;-66
2023/04/15 12:38:28;;;;;;;;;;;16.50;62.00;;;;;;5094583;28;19923;-66
2023/04/15 12:40:54;;;;;;;;;;;16.60;63.80;;;;;;5094774;28;19916;-66
2023/04/15 12:43:20;;;;;;;;;;;17.20;61.20;;;;;;5094788;28;19909;-66
2023/04/15 12:45:46;;;;;;;;;;;17.70;54.90;;;;;;5094452;28;20371;-66
2023/04/15 12:48:12;;;;;;;;;;;18.20;53.60;;;;;;5094491;28;19921;-66
2023/04/15 12:50:38;;;;;;;;;;;18.70;50.40;;;;;;5094634;28;19916;-66
2023/04/15 12:53:03;;;;;;;;;;;19.10;48.00;;;;;;5094430;28;19983;-66
2023/04/15 12:55:29;;;;;;;;;;;18.50;44.70;;;;;;5094435;28;19924;-66
2023/04/15 12:57:58;;;;;;;;;;;18.80;44.50;;;;;;5094643;28;19912;-66
2023/04/15 13:00:24;;;;;;;;;;;19.30;46.40;;;;;;5094427;28;19913;-66
2023/04/15 13:02:49;;;;;;;;;;;19.90;46.80;;;;;;5094449;28;19930;-66
2023/04/15 13:05:16;;;;;;;;;;;19.90;46.00;;;;;;5088526;28;20266;-66
2023/04/15 13:07:41;;;;;;;;;;;19.90;44.60;;;;;;5073992;28;19963;-66
2023/04/15 13:10:07;;;;;;;;;;;19.90;43.90;;;;;;5074052;28;19916;-66
2023/04/15 13:12:36;;;;;;;;;;;19.70;45.30;;;;;;5077950;28;19980;-66
2023/04/15 13:15:05;;;;;;;;;;;19.40;46.00;;;;;;5077725;28;20034;-66
2023/04/15 13:17:31;;;;;;;;;;;19.90;44.60;;;;;;5077811;28;19908;-67
2023/04/15 13:19:57;;;;;;;;;;;20.00;45.30;;;;;;5077607;28;19958;-67
2023/04/15 13:22:22;;;;;;;;;;;20.70;46.90;;;;;;5077635;28;19914;-67
2023/04/15 13:24:48;;;;;;;;;;;21.10;43.80;;;;;;5077608;28;20054;-67
2023/04/15 13:27:14;;;;;;;;;;;21.50;43.60;;;;;;5077524;28;19916;-67
2023/04/15 13:29:40;;;;;;;;;;;20.40;42.90;;;;;;5077550;28;20269;-67
2023/04/15 13:32:05;;;;;;;;;;;21.00;42.80;;;;;;5077369;28;19974;-67
2023/04/15 13:34:31;;;;;;;;;;;21.30;42.30;;;;;;5077384;28;20336;-67
2023/04/15 13:36:57;;;;;;;;;;;20.60;41.20;;;;;;5077250;28;19908;-67
2023/04/15 13:39:23;;;;;;;;;;;20.00;43.50;;;;;;5077507;28;19923;-67
2023/04/15 13:41:49;;;;;;;;;;;20.00;45.30;;;;;;5077125;28;19912;-67
2023/04/15 13:44:14;;;;;;;;;;;19.50;44.20;;;;;;5077047;28;19920;-67
2023/04/15 13:46:41;;;;;;;;;;;19.40;45.40;;;;;;5077410;28;19913;-67
2023/04/15 13:49:07;;;;;;;;;;;19.00;46.10;;;;;;5077042;28;20003;-66
2023/04/15 13:51:35;;;;;;;;;;;18.80;44.70;;;;;;5076988;28;19952;-66
2023/04/15 13:54:01;;;;;;;;;;;18.70;46.50;;;;;;5077067;28;19916;-66
2023/04/15 13:56:28;;;;;;;;;;;18.70;47.70;;;;;;5076791;28;19943;-67
2023/04/15 13:58:57;;;;;;;;;;;18.70;46.60;;;;;;5076935;28;19935;-66
2023/04/15 14:01:23;;;;;;;;;;;18.70;49.30;;;;;;5077086;28;20350;-66
2023/04/15 14:03:50;;;;;;;;;;;18.70;46.90;;;;;;5076749;28;20340;-66
2023/04/15 14:06:15;;;;;;;;;;;18.60;46.00;;;;;;5090931;28;19912;-66
2023/04/15 14:08:41;;;;;;;;;;;18.60;45.60;;;;;;5096840;28;19920;-66
2023/04/15 14:11:07;;;;;;;;;;;18.70;46.10;;;;;;5096808;28;20192;-67
2023/04/15 14:13:33;;;;;;;;;;;18.80;47.60;;;;;;5096822;28;19944;-66
2023/04/15 14:15:59;;;;;;;;;;;18.80;46.60;;;;;;5097056;28;19912;-67
2023/04/15 14:18:25;;;;;;;;;;;19.00;47.40;;;;;;5096538;28;19989;-66
2023/04/15 14:20:50;;;;;;;;;;;19.20;46.60;;;;;;5096779;28;20382;-66